Time;durP1;ratioP1;P1;durP2;ratioP2;P2;SDS_P1;SDS_P2;PMS_P1;PMS_P2;Temp;Humidity;BMP_temperature;BMP_pressure;BME280_temperature;BME280_humidity;BME280_pressure;Samples;Min_cycle;Max_cycle;Signal;HPM_P1;HPM_P2
2022/01/23 00:00:28;;;;;;;7.55;2.85;;;5.90;99.90;;;;;;6214410;23;20023;-83
2022/01/23 00:02:59;;;;;;;16.45;3.30;;;5.90;99.90;;;;;;6214281;23;20023;-80
2022/01/23 00:05:28;;;;;;;7.65;2.95;;;5.90;99.90;;;;;;6215389;23;20016;-80
2022/01/23 00:07:54;;;;;;;8.95;2.90;;;6.00;99.90;;;;;;6189646;23;20016;-82
2022/01/23 00:10:20;;;;;;;10.40;2.80;;;5.90;99.90;;;;;;6213040;23;20427;-82
2022/01/23 00:12:51;;;;;;;10.38;3.33;;;6.00;99.90;;;;;;6213971;23;20023;-83
2022/01/23 00:18:01;;;;;;;8.45;2.58;;;5.90;99.90;;;;;;6215112;23;20263;-83
2022/01/23 00:20:27;;;;;;;10.88;3.05;;;5.80;99.90;;;;;;6188916;23;20098;-83
2022/01/23 00:23:12;;;;;;;10.35;2.90;;;5.90;99.90;;;;;;6213984;23;20024;-81
2022/01/23 00:31:06;;;;;;;11.07;3.40;;;5.80;99.90;;;;;;6215068;23;20019;-80
2022/01/23 00:33:32;;;;;;;10.90;3.35;;;5.70;99.90;;;;;;6188666;23;20095;-81
2022/01/23 00:35:57;;;;;;;8.38;3.28;;;5.80;99.90;;;;;;6215741;23;20044;-80
2022/01/23 00:38:23;;;;;;;8.70;3.40;;;5.80;99.90;;;;;;6214059;23;20020;-81
2022/01/23 00:40:49;;;;;;;13.18;3.25;;;5.80;99.90;;;;;;6214262;23;20027;-81
2022/01/23 00:43:36;;;;;;;7.68;3.28;;;5.80;99.90;;;;;;6214517;23;20027;-83
2022/01/23 00:46:23;;;;;;;9.88;3.28;;;5.80;99.90;;;;;;6190933;23;20016;-83
2022/01/23 00:51:17;;;;;;;12.70;4.18;;;5.80;99.90;;;;;;6188537;23;20019;-82
2022/01/23 00:53:42;;;;;;;11.23;4.07;;;5.80;99.90;;;;;;6215346;23;20454;-81
2022/01/23 00:56:09;;;;;;;11.90;3.88;;;5.70;99.90;;;;;;6188002;23;20027;-83
2022/01/23 00:58:35;;;;;;;9.10;4.05;;;5.70;99.90;;;;;;6189794;23;20104;-81
2022/01/23 01:01:00;;;;;;;13.30;4.25;;;5.70;99.90;;;;;;6215730;23;20467;-83
2022/01/23 01:03:26;;;;;;;11.80;4.03;;;5.70;99.90;;;;;;6215381;23;20058;-80
2022/01/23 01:05:52;;;;;;;10.52;4.30;;;5.70;99.90;;;;;;6214559;23;20062;-82
2022/01/23 01:08:18;;;;;;;16.73;4.80;;;5.70;99.90;;;;;;6214981;23;20019;-83
2022/01/23 01:10:56;;;;;;;8.43;4.25;;;6.00;99.90;;;;;;6213194;23;20031;-83
2022/01/23 01:13:28;;;;;;;10.75;4.53;;;5.60;99.90;;;;;;6215775;23;20074;-82
2022/01/23 01:16:02;;;;;;;19.25;4.50;;;5.60;99.90;;;;;;6189465;23;20503;-83
2022/01/23 01:32:12;;;;;;;13.23;4.53;;;5.60;99.90;;;;;;6214612;23;20098;-81
2022/01/23 01:34:43;;;;;;;16.70;4.28;;;5.60;99.90;;;;;;6215014;23;20012;-81
2022/01/23 01:37:11;;;;;;;13.20;4.32;;;5.60;99.90;;;;;;6188516;23;20027;-80
2022/01/23 01:39:37;;;;;;;14.98;5.13;;;5.60;99.90;;;;;;6214704;23;20020;-83
2022/01/23 01:42:04;;;;;;;12.32;5.38;;;5.60;99.90;;;;;;6242839;23;20024;-81
2022/01/23 01:44:30;;;;;;;10.25;5.50;;;5.50;99.90;;;;;;6192807;23;20094;-81
2022/01/23 01:46:56;;;;;;;9.60;4.60;;;5.60;99.90;;;;;;6192148;23;20019;-80
2022/01/23 01:49:32;;;;;;;11.45;4.90;;;5.50;99.90;;;;;;6215997;23;20658;-81
2022/01/23 01:52:00;;;;;;;18.65;5.03;;;5.60;99.90;;;;;;6218166;23;20019;-82
2022/01/23 01:54:29;;;;;;;11.50;5.20;;;5.50;99.90;;;;;;6244304;23;20039;-81
2022/01/23 01:57:06;;;;;;;15.00;5.28;;;5.60;99.90;;;;;;6192749;23;20364;-81
2022/01/23 02:10:37;;;;;;;11.43;5.18;;;5.60;99.90;;;;;;6095249;23;20049;-80
2022/01/23 02:13:13;;;;;;;13.20;5.05;;;5.50;99.90;;;;;;6072987;23;20021;-81
2022/01/23 02:50:55;;;;;;;19.55;5.82;;;5.60;99.90;;;;;;6216976;23;20055;-81
2022/01/23 02:54:04;;;;;;;15.57;6.43;;;5.60;99.90;;;;;;6190219;23;20132;-79
2022/01/23 02:56:33;;;;;;;19.45;6.35;;;5.60;99.90;;;;;;6215439;23;20104;-80
2022/01/23 02:59:11;;;;;;;17.58;6.03;;;5.60;99.90;;;;;;6217419;23;20019;-82
2022/01/23 03:01:47;;;;;;;12.23;5.13;;;5.60;99.90;;;;;;6214312;23;20016;-79
2022/01/23 03:04:13;;;;;;;13.85;5.35;;;5.60;99.90;;;;;;6215833;23;20012;-79
2022/01/23 03:06:55;;;;;;;18.85;5.85;;;5.50;99.90;;;;;;6190063;23;20024;-80
2022/01/23 03:14:47;;;;;;;18.40;5.85;;;5.60;99.90;;;;;;6211134;23;20110;-79
2022/01/23 03:30:39;;;;;;;13.30;5.45;;;5.70;99.90;;;;;;6210135;23;20040;-80
2022/01/23 03:33:05;;;;;;;12.88;5.60;;;5.90;99.90;;;;;;6210382;23;20092;-79
2022/01/23 03:35:31;;;;;;;17.27;6.00;;;5.70;99.90;;;;;;6185146;23;20044;-80
2022/01/23 03:37:57;;;;;;;12.98;5.50;;;5.60;99.90;;;;;;6184129;23;20021;-80
2022/01/23 03:40:23;;;;;;;13.98;5.95;;;5.60;99.90;;;;;;6208850;23;20086;-79
2022/01/23 03:42:56;;;;;;;13.18;5.75;;;5.60;99.90;;;;;;6209856;23;20052;-79
2022/01/23 03:50:37;;;;;;;15.65;6.15;;;5.50;99.90;;;;;;6209135;23;20082;-79
2022/01/23 03:53:03;;;;;;;16.77;6.55;;;5.60;99.90;;;;;;6210756;23;20429;-81
2022/01/23 03:55:28;;;;;;;12.52;5.82;;;5.60;99.90;;;;;;6210748;23;20178;-78
2022/01/23 03:57:54;;;;;;;15.60;6.00;;;5.60;99.90;;;;;;6211551;23;20017;-80
2022/01/23 04:00:20;;;;;;;13.73;5.70;;;5.70;99.90;;;;;;6186273;23;20097;-81
2022/01/23 04:02:45;;;;;;;19.38;6.53;;;5.60;99.90;;;;;;6185878;23;20424;-81
2022/01/23 04:05:11;;;;;;;14.90;7.32;;;5.60;99.90;;;;;;6210084;23;20009;-79
2022/01/23 04:07:37;;;;;;;20.48;6.97;;;5.60;99.90;;;;;;6209849;23;20016;-80
2022/01/23 04:10:04;;;;;;;13.23;7.07;;;5.60;99.90;;;;;;6210876;23;20021;-82
2022/01/23 04:12:51;;;;;;;22.52;7.80;;;5.50;99.90;;;;;;6186528;23;20021;-81
2022/01/23 04:34:19;;;;;;;13.10;7.30;;;5.50;99.90;;;;;;6190296;23;20016;-79
2022/01/23 04:45:21;;;;;;;23.90;7.68;;;5.50;99.90;;;;;;6209585;23;20067;-80
2022/01/23 05:01:33;;;;;;;15.23;7.13;;;5.50;99.90;;;;;;6211287;23;20425;-79
2022/01/23 05:04:12;;;;;;;20.50;7.50;;;5.60;99.90;;;;;;6210271;23;20016;-80
2022/01/23 05:06:59;;;;;;;16.10;7.38;;;5.50;99.90;;;;;;6209518;23;20013;-78
2022/01/23 05:09:26;;;;;;;18.40;7.68;;;5.60;99.90;;;;;;6207874;23;20013;-81
2022/01/23 05:11:59;;;;;;;16.77;7.10;;;5.60;99.90;;;;;;6209617;23;20082;-79
2022/01/23 05:14:31;;;;;;;15.13;7.43;;;5.60;99.90;;;;;;6209801;23;20005;-80
2022/01/23 05:16:58;;;;;;;14.57;6.97;;;5.60;99.90;;;;;;6211811;23;20012;-81
2022/01/23 05:19:24;;;;;;;15.30;7.03;;;5.50;99.90;;;;;;6186662;23;20134;-80
2022/01/23 05:24:38;;;;;;;16.17;6.95;;;5.60;99.90;;;;;;6209945;23;20477;-81
2022/01/23 05:27:08;;;;;;;15.35;7.32;;;5.50;99.90;;;;;;6186237;23;20016;-79
2022/01/23 05:29:34;;;;;;;16.35;6.93;;;5.50;99.90;;;;;;6187056;23;20416;-80
2022/01/23 05:32:01;;;;;;;14.75;7.18;;;5.50;99.90;;;;;;6185804;23;20071;-80
2022/01/23 05:34:27;;;;;;;11.18;6.80;;;5.60;99.90;;;;;;6185406;23;20099;-79
2022/01/23 05:36:53;;;;;;;11.05;6.45;;;5.50;99.90;;;;;;6186610;23;20063;-79
2022/01/23 05:39:21;;;;;;;15.35;6.57;;;5.60;99.90;;;;;;6211166;23;20067;-77
2022/01/23 05:41:52;;;;;;;19.67;7.20;;;5.50;99.90;;;;;;6186294;23;20055;-81
2022/01/23 05:44:18;;;;;;;14.65;7.15;;;5.50;99.90;;;;;;6186219;23;20510;-78
2022/01/23 05:46:44;;;;;;;16.33;7.00;;;5.60;99.90;;;;;;6185159;23;20389;-81
2022/01/23 05:49:09;;;;;;;15.30;7.32;;;5.60;99.90;;;;;;6210900;23;20127;-78
2022/01/23 05:51:35;;;;;;;14.13;7.45;;;5.50;99.90;;;;;;6186668;23;20091;-78
2022/01/23 05:54:37;;;;;;;14.88;7.65;;;5.50;99.90;;;;;;6210909;23;20013;-80
2022/01/23 05:57:04;;;;;;;17.63;7.32;;;5.50;99.90;;;;;;6185718;23;20432;-81
2022/01/23 05:59:29;;;;;;;16.85;8.40;;;5.60;99.90;;;;;;6161707;23;20020;-79
2022/01/23 06:01:55;;;;;;;17.15;8.20;;;5.50;99.90;;;;;;6187373;23;20788;-81
2022/01/23 06:04:24;;;;;;;13.90;8.02;;;5.50;99.90;;;;;;6185574;23;20293;-78
2022/01/23 06:06:50;;;;;;;18.38;8.35;;;5.50;99.90;;;;;;6186685;23;20417;-80
2022/01/23 06:09:20;;;;;;;15.10;7.90;;;5.50;99.90;;;;;;6220339;23;20062;-79
2022/01/23 06:11:46;;;;;;;17.50;8.60;;;5.60;99.90;;;;;;6217253;23;20309;-81
2022/01/23 06:14:11;;;;;;;14.70;8.05;;;5.50;99.90;;;;;;6191894;23;20012;-80
2022/01/23 06:16:38;;;;;;;15.00;8.80;;;5.50;99.90;;;;;;6216910;23;20097;-79
2022/01/23 06:19:05;;;;;;;13.85;8.27;;;5.50;99.90;;;;;;6191740;23;20026;-79
2022/01/23 06:21:30;;;;;;;17.58;8.25;;;5.50;99.90;;;;;;6192509;23;20087;-78
2022/01/23 06:24:24;;;;;;;16.40;8.45;;;5.90;99.90;;;;;;6190403;23;20482;-79
2022/01/23 06:26:54;;;;;;;18.90;8.05;;;5.50;99.90;;;;;;6217702;23;20027;-82
2022/01/23 06:29:21;;;;;;;16.90;8.45;;;5.40;99.90;;;;;;6218256;23;20054;-80
2022/01/23 06:31:48;;;;;;;15.40;7.82;;;5.70;99.90;;;;;;6193078;23;20107;-81
2022/01/23 06:34:16;;;;;;;14.50;8.27;;;6.00;99.90;;;;;;6192724;23;20129;-80
2022/01/23 06:36:43;;;;;;;15.45;8.27;;;5.40;99.90;;;;;;6218674;23;20024;-81
2022/01/23 06:39:11;;;;;;;16.58;8.48;;;5.40;99.90;;;;;;6218245;23;20087;-80
2022/01/23 06:41:38;;;;;;;16.42;7.85;;;6.20;99.90;;;;;;6193326;23;20070;-80
2022/01/23 06:44:05;;;;;;;15.13;8.25;;;6.10;99.90;;;;;;6245501;23;20023;-82
2022/01/23 06:46:31;;;;;;;17.92;8.50;;;5.50;99.90;;;;;;6192157;23;20012;-80
2022/01/23 06:48:57;;;;;;;17.02;8.50;;;5.40;99.90;;;;;;6192696;23;20048;-83
2022/01/23 06:51:23;;;;;;;14.15;7.55;;;5.40;99.90;;;;;;6216738;23;20020;-81
2022/01/23 06:53:49;;;;;;;15.73;7.57;;;5.40;99.90;;;;;;6217747;23;20454;-80
2022/01/23 06:56:15;;;;;;;17.20;8.50;;;5.40;99.90;;;;;;6191999;23;20312;-80
2022/01/23 06:58:41;;;;;;;14.07;7.72;;;5.30;99.90;;;;;;6216750;23;20048;-80
2022/01/23 07:01:07;;;;;;;14.98;7.93;;;5.30;99.90;;;;;;6193212;23;20026;-81
2022/01/23 07:03:37;;;;;;;16.75;8.35;;;5.30;99.90;;;;;;6217268;23;20015;-78
2022/01/23 07:06:03;;;;;;;12.82;7.97;;;5.20;99.90;;;;;;6192821;23;20024;-81
2022/01/23 07:08:29;;;;;;;13.93;8.30;;;5.20;99.90;;;;;;6218412;23;20083;-82
2022/01/23 07:10:56;;;;;;;18.13;9.18;;;5.20;99.90;;;;;;6243980;23;20095;-79
2022/01/23 07:13:22;;;;;;;22.90;8.57;;;5.10;99.90;;;;;;6192594;23;20012;-81
2022/01/23 07:15:48;;;;;;;20.65;9.15;;;5.10;99.90;;;;;;6192908;23;20012;-79
2022/01/23 07:18:18;;;;;;;17.17;8.95;;;5.00;99.90;;;;;;6192578;23;20048;-79
2022/01/23 07:20:45;;;;;;;20.63;9.70;;;5.10;99.90;;;;;;6218098;23;20113;-81
2022/01/23 07:23:11;;;;;;;20.08;10.55;;;5.00;99.90;;;;;;6192325;23;20444;-80
2022/01/23 07:25:37;;;;;;;17.70;9.52;;;5.00;99.90;;;;;;6217282;23;20340;-81
2022/01/23 07:28:05;;;;;;;22.20;10.68;;;5.00;99.90;;;;;;6245174;23;20070;-81
2022/01/23 07:30:38;;;;;;;19.58;10.55;;;4.90;99.90;;;;;;6192651;23;20110;-80
2022/01/23 07:33:04;;;;;;;15.80;8.93;;;5.00;99.90;;;;;;6190596;23;20521;-78
2022/01/23 07:35:30;;;;;;;19.98;9.40;;;4.90;99.90;;;;;;6191317;23;20012;-78
2022/01/23 07:37:56;;;;;;;19.23;9.23;;;4.90;99.90;;;;;;6217417;23;20381;-79
2022/01/23 07:40:22;;;;;;;16.85;9.30;;;4.80;99.90;;;;;;6191669;23;20062;-77
2022/01/23 07:42:47;;;;;;;19.70;8.85;;;4.90;99.90;;;;;;6192229;23;20078;-80
2022/01/23 07:45:13;;;;;;;14.90;8.32;;;4.90;99.90;;;;;;6217000;23;20091;-82
2022/01/23 07:47:39;;;;;;;16.88;7.85;;;4.90;99.90;;;;;;6191033;23;20139;-80
2022/01/23 07:50:08;;;;;;;16.85;8.35;;;4.90;99.90;;;;;;6191626;23;20140;-80
2022/01/23 07:52:36;;;;;;;13.45;7.05;;;4.80;99.90;;;;;;6192062;23;20051;-80
2022/01/23 07:55:07;;;;;;;12.30;7.47;;;4.90;99.90;;;;;;6216631;23;20030;-77
2022/01/23 07:57:34;;;;;;;16.13;7.63;;;4.80;99.90;;;;;;6218723;23;20129;-80
2022/01/23 08:00:00;;;;;;;12.85;7.30;;;5.30;99.90;;;;;;6192117;23;20020;-78
2022/01/23 08:02:26;;;;;;;12.40;6.93;;;4.90;99.90;;;;;;6189717;23;20090;-81
2022/01/23 08:04:52;;;;;;;16.08;6.95;;;4.90;99.90;;;;;;6190978;23;20016;-79
2022/01/23 08:07:30;;;;;;;12.15;6.65;;;5.00;99.90;;;;;;6216034;23;20026;-75
2022/01/23 08:09:58;;;;;;;14.90;7.18;;;5.00;99.90;;;;;;6214867;23;20023;-81
2022/01/23 08:12:29;;;;;;;12.27;6.85;;;5.10;99.90;;;;;;6215676;23;20039;-80
2022/01/23 08:14:56;;;;;;;11.80;6.50;;;5.20;99.90;;;;;;6214633;23;20020;-78
2022/01/23 08:17:25;;;;;;;12.07;6.97;;;5.20;99.90;;;;;;6214973;23;20016;-77
2022/01/23 08:19:52;;;;;;;12.10;7.10;;;5.30;99.90;;;;;;6189923;23;20023;-81
2022/01/23 08:22:18;;;;;;;16.40;6.70;;;5.20;99.90;;;;;;6190129;23;20510;-77
2022/01/23 08:24:44;;;;;;;15.57;7.63;;;5.30;99.90;;;;;;6188799;23;20375;-81
2022/01/23 08:27:11;;;;;;;15.80;7.75;;;5.30;99.90;;;;;;6215467;23;20015;-82
2022/01/23 08:29:36;;;;;;;12.20;7.10;;;5.40;99.90;;;;;;6190285;23;20016;-79
2022/01/23 08:32:02;;;;;;;11.50;6.40;;;6.10;99.90;;;;;;6189569;23;20601;-77
2022/01/23 08:34:28;;;;;;;10.70;6.82;;;5.50;99.90;;;;;;6211478;23;20453;-78
2022/01/23 08:36:55;;;;;;;14.60;6.97;;;5.50;99.90;;;;;;6213365;23;20095;-82
2022/01/23 08:39:25;;;;;;;13.30;6.95;;;5.50;99.90;;;;;;6214417;23;20012;-81
2022/01/23 08:41:51;;;;;;;11.85;7.18;;;5.50;99.90;;;;;;6216777;23;20047;-82
2022/01/23 08:44:21;;;;;;;15.90;7.47;;;5.50;99.90;;;;;;6215301;23;20012;-80
2022/01/23 08:46:48;;;;;;;12.82;7.40;;;5.50;99.90;;;;;;6215478;23;20024;-83
2022/01/23 08:49:17;;;;;;;14.93;7.97;;;5.60;99.90;;;;;;6241181;23;20011;-82
2022/01/23 08:51:44;;;;;;;13.43;7.55;;;6.20;99.90;;;;;;6190516;23;20016;-83
2022/01/23 08:54:10;;;;;;;12.80;7.28;;;5.60;99.90;;;;;;6189315;23;20019;-82
2022/01/23 08:56:36;;;;;;;13.35;7.70;;;5.80;99.90;;;;;;6214766;23;20008;-80
2022/01/23 08:59:01;;;;;;;15.93;7.45;;;5.70;99.90;;;;;;6215027;23;20016;-81
2022/01/23 09:01:28;;;;;;;14.90;8.07;;;5.70;99.90;;;;;;6214875;23;20433;-85
2022/01/23 09:03:53;;;;;;;21.52;7.72;;;5.70;99.90;;;;;;6214549;23;20008;-84
2022/01/23 09:06:20;;;;;;;16.00;7.38;;;5.80;99.90;;;;;;6189878;23;20287;-79
2022/01/23 09:08:46;;;;;;;13.25;7.57;;;5.80;99.90;;;;;;6187541;23;20113;-79
2022/01/23 09:16:16;;;;;;;10.50;6.60;;;6.00;99.90;;;;;;6214932;23;20016;-78
2022/01/23 09:18:42;;;;;;;10.75;6.40;;;5.90;99.90;;;;;;6214323;23;20012;-76
2022/01/23 09:21:08;;;;;;;12.15;6.45;;;5.90;99.90;;;;;;6213863;23;20102;-76
2022/01/23 09:23:34;;;;;;;10.80;6.30;;;6.00;99.90;;;;;;6214762;23;20083;-79
2022/01/23 09:26:07;;;;;;;9.75;6.30;;;6.10;99.90;;;;;;6212239;23;20375;-77
2022/01/23 09:28:33;;;;;;;11.32;6.10;;;6.20;99.90;;;;;;6212791;23;20012;-79
2022/01/23 09:31:01;;;;;;;11.25;6.68;;;6.20;99.90;;;;;;6187628;23;20012;-79
2022/01/23 09:33:28;;;;;;;8.15;5.40;;;6.30;99.90;;;;;;6212514;23;20436;-76
2022/01/23 09:35:53;;;;;;;8.57;5.80;;;6.30;99.90;;;;;;6214583;23;20066;-76
2022/01/23 09:38:19;;;;;;;8.30;5.30;;;6.30;99.90;;;;;;6214999;23;20020;-77
2022/01/23 09:40:47;;;;;;;8.15;5.65;;;6.40;99.90;;;;;;6214883;23;20018;-81
2022/01/23 09:43:16;;;;;;;6.70;4.68;;;6.50;99.90;;;;;;6215915;23;20043;-77
2022/01/23 09:45:47;;;;;;;10.15;5.40;;;6.40;99.90;;;;;;6216006;23;20024;-82
2022/01/23 09:48:13;;;;;;;8.40;5.72;;;6.50;99.90;;;;;;6215163;23;20448;-77
2022/01/23 09:50:42;;;;;;;7.60;5.03;;;6.50;99.90;;;;;;6190452;23;20123;-76
2022/01/23 09:53:08;;;;;;;7.57;5.00;;;6.60;99.90;;;;;;6214235;23;20023;-79
2022/01/23 09:55:35;;;;;;;6.47;4.47;;;6.60;99.90;;;;;;6214568;23;20012;-77
2022/01/23 09:58:01;;;;;;;8.30;4.93;;;6.80;99.90;;;;;;6215888;23;20044;-77
2022/01/23 10:00:29;;;;;;;6.85;4.63;;;6.80;99.90;;;;;;6218748;23;20016;-79
2022/01/23 10:02:56;;;;;;;7.95;4.50;;;6.80;99.90;;;;;;6192210;23;20012;-82
2022/01/23 10:05:22;;;;;;;7.40;4.57;;;6.90;99.90;;;;;;6214987;23;20027;-78
2022/01/23 10:07:48;;;;;;;5.90;3.90;;;7.00;99.90;;;;;;6216688;23;20402;-77
2022/01/23 10:10:22;;;;;;;5.63;4.00;;;7.00;99.90;;;;;;6210083;23;20267;-76
2022/01/23 10:12:55;;;;;;;5.75;4.10;;;7.00;99.90;;;;;;6186509;23;20341;-76
2022/01/23 10:15:21;;;;;;;5.80;4.00;;;7.00;99.90;;;;;;6211553;23;20087;-79
2022/01/23 10:17:47;;;;;;;5.20;3.58;;;7.10;99.90;;;;;;6210131;23;20027;-79
2022/01/23 10:20:14;;;;;;;7.35;4.18;;;7.10;99.90;;;;;;6211039;23;20020;-79
2022/01/23 10:22:44;;;;;;;7.30;4.22;;;7.10;99.90;;;;;;6211281;23;20017;-82
2022/01/23 10:25:12;;;;;;;4.35;3.30;;;7.10;99.90;;;;;;6185025;23;20021;-79
2022/01/23 10:28:02;;;;;;;5.70;3.13;;;7.10;99.90;;;;;;6211007;23;20448;-78
2022/01/23 10:30:31;;;;;;;4.65;3.30;;;7.10;99.90;;;;;;6187026;23;20024;-78
2022/01/23 10:33:03;;;;;;;5.18;3.40;;;7.20;99.90;;;;;;6212928;23;20062;-79
2022/01/23 10:35:32;;;;;;;6.72;3.50;;;7.20;99.90;;;;;;6211679;23;20063;-78
2022/01/23 10:38:09;;;;;;;4.60;3.33;;;7.10;99.90;;;;;;6211273;23;20095;-78
2022/01/23 10:40:37;;;;;;;5.38;3.72;;;7.10;99.90;;;;;;6185310;23;20200;-79
2022/01/23 10:48:42;;;;;;;6.60;3.60;;;7.10;99.90;;;;;;6212916;23;20020;-80
2022/01/23 10:51:23;;;;;;;6.15;4.47;;;7.10;99.90;;;;;;6185982;23;20383;-78
2022/01/23 10:54:20;;;;;;;19.88;11.82;;;7.20;99.90;;;;;;6185438;23;20187;-82
2022/01/23 10:57:08;;;;;;;16.60;10.55;;;7.20;99.90;;;;;;6212081;23;20051;-80
2022/01/23 10:59:47;;;;;;;7.57;5.00;;;7.20;99.90;;;;;;6187320;23;20071;-81
2022/01/23 11:02:21;;;;;;;4.88;3.70;;;7.30;99.90;;;;;;6186532;23;20028;-79
2022/01/23 11:04:52;;;;;;;4.47;3.53;;;7.30;99.90;;;;;;6212597;23;20051;-81
2022/01/23 11:07:18;;;;;;;3.13;2.40;;;7.40;99.90;;;;;;6212154;23;20043;-82
2022/01/23 11:09:46;;;;;;;4.70;3.00;;;7.30;99.90;;;;;;6211832;23;20139;-77
2022/01/23 11:12:31;;;;;;;4.00;2.80;;;7.40;99.90;;;;;;6212590;23;20019;-80
2022/01/23 11:17:53;;;;;;;4.80;2.70;;;7.50;99.90;;;;;;6236932;23;19997;-80
2022/01/23 11:20:37;;;;;;;5.30;2.60;;;7.40;99.90;;;;;;6212427;23;20023;-81
2022/01/23 11:23:22;;;;;;;5.13;2.75;;;7.40;99.90;;;;;;6212835;23;20028;-79
2022/01/23 11:25:57;;;;;;;4.70;2.63;;;7.40;99.90;;;;;;6211993;23;20044;-81
2022/01/23 11:28:32;;;;;;;6.03;2.85;;;7.50;99.90;;;;;;6186370;23;20028;-78
2022/01/23 11:30:58;;;;;;;4.80;3.00;;;7.40;99.90;;;;;;6187488;23;20306;-78
2022/01/23 11:33:25;;;;;;;4.18;2.58;;;7.50;99.90;;;;;;6187079;23;20299;-78
2022/01/23 11:35:51;;;;;;;3.05;2.75;;;7.50;99.90;;;;;;6212623;23;20019;-79
2022/01/23 11:38:20;;;;;;;5.45;3.00;;;7.50;99.90;;;;;;6212640;23;20056;-79
2022/01/23 11:54:36;;;;;;;4.32;2.90;;;7.80;99.90;;;;;;6211882;23;20070;-79
2022/01/23 11:57:03;;;;;;;3.17;2.80;;;7.80;99.90;;;;;;6212180;23;20012;-79
2022/01/23 11:59:39;;;;;;;3.63;2.75;;;7.70;99.90;;;;;;6185294;23;20012;-79
2022/01/23 12:02:11;;;;;;;4.30;2.70;;;7.80;99.90;;;;;;6186957;23;20417;-79
2022/01/23 12:04:39;;;;;;;3.38;2.50;;;7.80;99.90;;;;;;6212028;23;20016;-78
2022/01/23 12:07:11;;;;;;;4.40;2.80;;;7.80;99.90;;;;;;6185513;23;20017;-80
2022/01/23 12:09:43;;;;;;;5.10;3.72;;;7.70;99.90;;;;;;6211294;23;20131;-80
2022/01/23 12:18:16;;;;;;;4.50;3.47;;;7.90;99.90;;;;;;6211213;23;20099;-79
2022/01/23 12:20:44;;;;;;;4.20;2.47;;;7.90;99.90;;;;;;6210409;23;20023;-82
2022/01/23 12:23:11;;;;;;;3.38;1.92;;;7.90;99.90;;;;;;6210749;23;20016;-81
2022/01/23 12:25:47;;;;;;;3.33;2.35;;;7.90;99.90;;;;;;6210410;23;20022;-80
2022/01/23 12:28:21;;;;;;;3.80;1.90;;;7.80;99.90;;;;;;6210725;23;20020;-77
2022/01/23 12:30:50;;;;;;;3.97;2.20;;;7.80;99.90;;;;;;6210729;23;20060;-82
2022/01/23 12:33:31;;;;;;;4.30;2.20;;;7.70;99.90;;;;;;6210804;23;20008;-79
2022/01/23 12:36:05;;;;;;;5.18;2.40;;;7.80;99.90;;;;;;6211040;23;20009;-77
2022/01/23 12:38:41;;;;;;;6.63;2.45;;;7.70;99.90;;;;;;6186551;23;20318;-80
2022/01/23 12:41:32;;;;;;;3.33;2.50;;;7.70;99.90;;;;;;6210764;23;20502;-81
2022/01/23 12:44:28;;;;;;;4.68;2.50;;;7.80;99.90;;;;;;6186592;23;20086;-81
2022/01/23 12:46:57;;;;;;;2.80;2.22;;;7.90;99.90;;;;;;6211062;23;20051;-82
2022/01/23 12:49:29;;;;;;;4.18;2.50;;;7.90;99.90;;;;;;6209891;23;20021;-75
2022/01/23 12:52:07;;;;;;;4.93;2.45;;;7.80;99.90;;;;;;6211408;23;20012;-80
2022/01/23 12:54:51;;;;;;;4.45;2.25;;;7.90;99.90;;;;;;6211388;23;20016;-78
2022/01/23 12:57:26;;;;;;;4.93;2.72;;;7.80;99.90;;;;;;6211511;23;20016;-77
2022/01/23 12:59:56;;;;;;;3.20;2.60;;;7.80;99.90;;;;;;6185282;23;20016;-79
2022/01/23 13:02:25;;;;;;;3.53;2.60;;;7.70;99.90;;;;;;6210544;23;20016;-81
2022/01/23 13:04:52;;;;;;;4.28;2.30;;;7.70;99.90;;;;;;6210594;23;20017;-79
2022/01/23 13:07:30;;;;;;;4.25;3.28;;;7.60;99.90;;;;;;6183102;23;20096;-80
2022/01/23 13:10:07;;;;;;;5.55;3.40;;;7.70;99.90;;;;;;6209482;23;20020;-83
2022/01/23 13:32:08;;;;;;;6.03;3.40;;;7.50;99.90;;;;;;6208999;23;20067;-77
2022/01/23 13:34:53;;;;;;;4.50;3.35;;;7.50;99.90;;;;;;6183173;23;20070;-78
2022/01/23 13:37:25;;;;;;;4.97;3.93;;;7.50;99.90;;;;;;6211680;23;20012;-75
2022/01/23 13:40:03;;;;;;;14.05;6.93;;;7.50;99.90;;;;;;6184078;23;20380;-81
2022/01/23 13:59:29;;;;;;;9.93;5.18;;;7.60;99.90;;;;;;6212528;23;20318;-77
2022/01/23 14:04:37;;;;;;;8.38;4.55;;;7.50;99.90;;;;;;6212512;23;20345;-76
2022/01/23 14:07:03;;;;;;;10.95;7.30;;;7.50;99.90;;;;;;6213170;23;20460;-77
2022/01/23 14:09:40;;;;;;;15.48;8.98;;;7.40;99.90;;;;;;6213811;23;20012;-80
2022/01/23 14:12:08;;;;;;;12.98;7.53;;;7.40;99.90;;;;;;6217326;23;20509;-77
2022/01/23 14:14:34;;;;;;;12.82;7.32;;;7.40;99.90;;;;;;6217045;23;20113;-79
2022/01/23 14:17:12;;;;;;;11.05;7.68;;;7.40;99.90;;;;;;6191129;23;20447;-80
2022/01/23 14:19:38;;;;;;;8.23;5.60;;;7.40;99.90;;;;;;6216937;23;20012;-78
2022/01/23 14:22:03;;;;;;;10.63;4.72;;;7.60;99.90;;;;;;6217132;23;20115;-78
2022/01/23 14:24:36;;;;;;;10.35;6.43;;;7.40;99.90;;;;;;6214943;23;20412;-78
2022/01/23 14:27:08;;;;;;;8.20;5.22;;;7.40;99.90;;;;;;6215854;23;20791;-77
2022/01/23 14:29:49;;;;;;;6.70;5.03;;;7.40;99.90;;;;;;6215726;23;20098;-76
2022/01/23 14:32:23;;;;;;;9.57;4.97;;;7.40;99.90;;;;;;6215813;23;20056;-75
2022/01/23 14:34:48;;;;;;;9.73;4.95;;;7.40;99.90;;;;;;6190057;23;20012;-83
2022/01/23 14:37:23;;;;;;;6.40;4.90;;;7.40;99.90;;;;;;6214487;23;20491;-80
2022/01/23 14:39:49;;;;;;;9.82;6.05;;;7.30;99.90;;;;;;6190434;23;20058;-78
2022/01/23 14:42:18;;;;;;;9.85;4.72;;;7.30;99.90;;;;;;6214982;23;20016;-79
2022/01/23 14:44:45;;;;;;;7.15;4.80;;;7.30;99.90;;;;;;6216696;23;20050;-76
2022/01/23 14:47:11;;;;;;;8.38;5.78;;;7.30;99.90;;;;;;6214684;23;20016;-80
2022/01/23 14:49:41;;;;;;;7.22;4.70;;;7.30;99.90;;;;;;6189772;23;20046;-78
2022/01/23 14:52:10;;;;;;;11.57;5.43;;;7.30;99.90;;;;;;6215715;23;20019;-81
2022/01/23 14:54:37;;;;;;;9.27;5.10;;;7.20;99.90;;;;;;6214903;23;20012;-78
2022/01/23 14:57:05;;;;;;;8.35;5.38;;;7.20;99.90;;;;;;6242918;23;20131;-80
2022/01/23 14:59:32;;;;;;;7.38;4.90;;;7.20;99.90;;;;;;6214964;23;20091;-77
2022/01/23 15:01:59;;;;;;;8.73;4.95;;;7.20;99.90;;;;;;6190042;23;20016;-80
2022/01/23 15:04:25;;;;;;;8.52;4.78;;;7.20;99.90;;;;;;6216196;23;20027;-81
2022/01/23 15:06:52;;;;;;;8.10;4.95;;;7.20;99.90;;;;;;6215986;23;20478;-80
2022/01/23 15:09:20;;;;;;;12.27;6.45;;;7.20;99.90;;;;;;6190033;23;20013;-77
2022/01/23 15:11:48;;;;;;;8.93;4.97;;;7.10;99.90;;;;;;6185086;23;20024;-78
2022/01/23 15:14:13;;;;;;;11.05;4.80;;;7.20;99.90;;;;;;6213501;23;20077;-76
2022/01/23 15:16:41;;;;;;;8.88;4.82;;;7.10;99.90;;;;;;6211777;23;20119;-76
2022/01/23 15:19:09;;;;;;;8.50;4.75;;;7.10;99.90;;;;;;6186075;23;20082;-76
2022/01/23 15:21:35;;;;;;;7.53;4.68;;;7.00;99.90;;;;;;6211984;23;20008;-76
2022/01/23 15:24:02;;;;;;;7.72;4.55;;;7.00;99.90;;;;;;6186198;23;20042;-79
2022/01/23 15:26:32;;;;;;;10.43;4.95;;;7.00;99.90;;;;;;6186924;23;20504;-75
2022/01/23 15:28:58;;;;;;;7.88;4.45;;;7.00;99.90;;;;;;6212142;23;20344;-75
2022/01/23 15:31:24;;;;;;;6.32;4.70;;;7.00;99.90;;;;;;6186112;23;20035;-76
2022/01/23 15:33:51;;;;;;;11.80;4.28;;;7.00;99.90;;;;;;6211415;23;20024;-78
2022/01/23 15:36:17;;;;;;;9.20;4.30;;;7.00;99.90;;;;;;6185743;23;20012;-77
2022/01/23 15:38:44;;;;;;;10.23;4.82;;;7.00;99.90;;;;;;6211607;23;20016;-76
2022/01/23 15:41:11;;;;;;;10.18;7.20;;;7.00;99.90;;;;;;6211151;23;20087;-76
2022/01/23 15:43:37;;;;;;;14.05;10.75;;;6.90;99.90;;;;;;6186950;23;20023;-78
2022/01/23 15:46:03;;;;;;;12.25;7.68;;;6.90;99.90;;;;;;6214693;23;20044;-78
2022/01/23 15:48:30;;;;;;;10.25;7.63;;;6.90;99.90;;;;;;6186178;23;20048;-76
2022/01/23 15:51:01;;;;;;;11.30;6.25;;;6.90;99.90;;;;;;6210897;23;20075;-78
2022/01/23 15:53:26;;;;;;;10.82;7.78;;;6.90;99.90;;;;;;6187131;23;20016;-78
2022/01/23 15:55:53;;;;;;;14.60;7.57;;;6.90;99.90;;;;;;6186001;23;20015;-79
2022/01/23 15:58:18;;;;;;;7.07;5.75;;;6.80;99.90;;;;;;6211451;23;20012;-77
2022/01/23 16:00:44;;;;;;;11.02;8.65;;;6.80;99.90;;;;;;6209722;23;20118;-75
2022/01/23 16:03:10;;;;;;;10.45;6.82;;;6.80;99.90;;;;;;6210726;23;20019;-78
2022/01/23 16:05:36;;;;;;;13.30;9.13;;;6.80;99.90;;;;;;6210788;23;20095;-76
2022/01/23 16:08:02;;;;;;;9.65;7.38;;;6.80;99.90;;;;;;6184720;23;20052;-77
2022/01/23 16:10:27;;;;;;;11.10;6.70;;;6.80;99.90;;;;;;6189236;23;20252;-80
2022/01/23 16:12:53;;;;;;;9.65;8.32;;;6.90;99.90;;;;;;6189786;23;20020;-79
2022/01/23 16:15:21;;;;;;;8.80;6.00;;;6.80;99.90;;;;;;6214898;23;20019;-77
2022/01/23 16:17:50;;;;;;;9.90;7.40;;;6.80;99.90;;;;;;6166460;23;20420;-80
2022/01/23 16:20:18;;;;;;;9.98;7.47;;;6.70;99.90;;;;;;6216425;23;20020;-82
2022/01/23 16:22:45;;;;;;;13.27;7.85;;;7.10;99.90;;;;;;6247889;23;20012;-76
2022/01/23 16:25:11;;;;;;;22.33;12.77;;;6.70;99.90;;;;;;6215840;23;20288;-77
2022/01/23 16:27:40;;;;;;;19.67;15.40;;;6.70;99.90;;;;;;6216379;23;20094;-78
2022/01/23 16:30:10;;;;;;;16.67;10.23;;;6.70;99.90;;;;;;6216193;23;20020;-79
2022/01/23 16:32:37;;;;;;;13.45;7.20;;;6.70;99.90;;;;;;6215853;23;20107;-84